Maple Lake, Minnesota
Current Conditions -  °F | °C
As of 2:15 PM on Sunday 23 Nov 2014 (Local Time) from KMGG Reporting Station
Light Rain Light Rain  
Wind Chill: 32°   Ceiling: 4200
Heat Index: 38°   Visibility: 5mi
Dew Point: 38°   Wind: 7mph
Humidity: 99%   Direction: 280°W
Pressure: 29.42"   Gusts: NA
Location:  45.23°N, 94°W
Report Text: KMGG 232015Z AUTO 28006KT 5SM -RA SCT035 OVC042 03/03 A2942 RMK AO2 T00320031
Loading
Personal Weather Stations






























Interactive Weather Map New forecast layout! Learn more

10-Day Weather Forecast

Advertisements
Track Severe Weather on mobile